首页
METAR-TAF:

METAR-TAF

机场 :

倫敦希斯路機場, 英格兰

纬度: 51-29N, 经度: 000-27W, 海拔: 24米

当前天气观测

该预报发布于15分钟前的07:50 UTC
风速4节,风向西转西北
温度 8°C
湿度 81%
气压 1017 hPa
能见度10公里或以上
散云层高于3500英尺

METAR: EGLL 030750Z AUTO 29004KT 9999 SCT035 08/05 Q1017 NOSIG

时间: 09:05 (08:05 UTC)

预报

该预报发布于3小时和7分钟前的04:58 UTC
预报有效从03日的 06点(UTC)到 04日的 12点(UTC)
风速5节,风向西
能见度10公里或以上
散云层高于4000英尺
短暂存在
从 04日的 02点(UTC)到 04日的 08点(UTC)
能見度: 8000
几率 30%
从 04日的 03点(UTC)到 04日的 08点(UTC)
能見度: 3000
浅雾, 轻雾

TAF: EGLL 030458Z 0306/0412 26005KT 9999 SCT040 TEMPO 0402/0408 8000 PROB30 0403/0408 3000 MIFG BR

超过4000个机场的气象观测和天气预报(METAR&TAF报告)。

可查询的气象台以黄色和红色小点在地图上表示。

将鼠标移到小点上方,可查看气象台名称。

然后点击查看天气观测和预报。

如需切换地图:点击带黑十字的绿色按钮放大地图;点击带横线的绿色按钮缩小地图;或者点击绿色箭头查看邻近地区的地图。


METAR-TAF: